createdAt,value
2022-10-21T00:01:08.666Z,11.50
2022-10-21T00:03:37.272Z,11.60
2022-10-21T00:06:06.211Z,11.60
2022-10-21T00:08:34.738Z,11.60
2022-10-21T00:11:07.590Z,11.70
2022-10-21T00:13:39.713Z,11.80
2022-10-21T00:16:11.416Z,11.80
2022-10-21T00:18:42.020Z,11.70
2022-10-21T00:21:13.681Z,11.70
2022-10-21T00:23:42.295Z,11.70
2022-10-21T00:26:14.071Z,11.70
2022-10-21T00:28:42.554Z,11.70
2022-10-21T00:31:12.798Z,11.70
2022-10-21T00:33:41.415Z,11.70
2022-10-21T00:36:14.817Z,11.60
2022-10-21T00:38:45.072Z,11.60
2022-10-21T00:41:17.445Z,11.60
2022-10-21T00:44:02.127Z,11.60
2022-10-21T00:46:39.245Z,11.70
2022-10-21T00:49:17.962Z,11.70
2022-10-21T00:51:50.788Z,11.70
2022-10-21T00:54:21.742Z,11.70
2022-10-21T00:56:55.790Z,11.70
2022-10-21T00:59:27.646Z,11.70
2022-10-21T01:01:56.160Z,11.70
2022-10-21T01:04:24.759Z,11.70
2022-10-21T01:06:53.496Z,11.70
2022-10-21T01:09:22.820Z,11.70
2022-10-21T01:11:52.440Z,11.70
2022-10-21T01:14:46.356Z,11.70
2022-10-21T01:17:46.717Z,11.70
2022-10-21T01:20:47.646Z,11.70
2022-10-21T01:23:58.250Z,11.60
2022-10-21T01:27:10.840Z,11.60
2022-10-21T01:30:12.411Z,11.60
2022-10-21T01:33:21.915Z,11.50
2022-10-21T01:35:57.050Z,11.50
2022-10-21T01:38:35.740Z,11.50
2022-10-21T01:41:14.460Z,11.50
2022-10-21T01:43:56.105Z,11.50
2022-10-21T01:46:31.487Z,11.60
2022-10-21T01:49:08.978Z,11.60
2022-10-21T01:51:38.925Z,11.70
2022-10-21T01:54:11.480Z,11.70
2022-10-21T01:56:43.249Z,11.70
2022-10-21T01:59:14.125Z,11.70
2022-10-21T02:01:44.930Z,11.70
2022-10-21T02:04:17.086Z,11.70
2022-10-21T02:06:45.531Z,11.60
2022-10-21T02:09:13.843Z,11.60
2022-10-21T02:11:46.878Z,11.70
2022-10-21T02:14:21.838Z,11.70
2022-10-21T02:16:53.497Z,11.70
2022-10-21T02:19:23.088Z,11.70
2022-10-21T02:21:55.531Z,11.70
2022-10-21T02:24:37.616Z,11.70
2022-10-21T02:27:06.357Z,11.80
2022-10-21T02:29:39.260Z,11.80
2022-10-21T02:32:26.855Z,11.80
2022-10-21T02:35:16.134Z,11.70
2022-10-21T02:37:53.367Z,11.80
2022-10-21T02:40:27.284Z,11.70
2022-10-21T02:43:00.560Z,11.70
2022-10-21T02:45:28.671Z,11.80
2022-10-21T02:47:57.195Z,11.80
2022-10-21T02:50:26.628Z,11.70
2022-10-21T02:52:54.605Z,11.70
2022-10-21T02:55:22.600Z,11.80
2022-10-21T02:57:50.724Z,11.70
2022-10-21T03:00:18.910Z,11.70
2022-10-21T03:02:46.930Z,11.80
2022-10-21T03:05:15.175Z,11.80
2022-10-21T03:07:44.633Z,11.80
2022-10-21T03:10:12.590Z,11.80
2022-10-21T03:12:40.577Z,11.90
2022-10-21T03:15:09.884Z,11.90
2022-10-21T03:17:38.191Z,11.90
2022-10-21T03:20:07.529Z,12.00
2022-10-21T03:22:35.558Z,12.00
2022-10-21T03:25:06.698Z,12.00
2022-10-21T03:27:34.765Z,12.00
2022-10-21T03:30:03.202Z,12.00
2022-10-21T03:32:31.210Z,12.00
2022-10-21T03:34:59.203Z,12.00
2022-10-21T03:37:27.333Z,12.00
2022-10-21T03:39:55.322Z,12.00
2022-10-21T03:42:24.594Z,12.00
2022-10-21T03:44:52.600Z,12.00
2022-10-21T03:47:20.584Z,12.10
2022-10-21T03:49:48.600Z,12.10
2022-10-21T03:52:16.751Z,12.10
2022-10-21T03:54:44.905Z,12.00
2022-10-21T03:57:12.870Z,12.00
2022-10-21T03:59:42.197Z,12.00
2022-10-21T04:02:10.140Z,12.00
2022-10-21T04:04:38.628Z,12.00
2022-10-21T04:07:06.593Z,12.00
2022-10-21T04:09:34.618Z,12.00
2022-10-21T04:12:02.634Z,12.00
2022-10-21T04:14:30.614Z,12.00
2022-10-21T04:17:06.942Z,12.00
2022-10-21T04:19:35.563Z,12.10
2022-10-21T04:22:03.584Z,12.10
2022-10-21T04:24:31.587Z,12.10
2022-10-21T04:26:59.631Z,12.10
2022-10-21T04:29:27.733Z,12.10
2022-10-21T04:34:30.640Z,12.10
2022-10-21T04:37:01.155Z,12.20
2022-10-21T04:39:32.256Z,12.10
2022-10-21T04:42:00.465Z,12.20
2022-10-21T04:44:28.450Z,12.20
2022-10-21T04:46:56.534Z,12.20
2022-10-21T04:49:24.509Z,12.20
2022-10-21T04:51:53.850Z,12.20
2022-10-21T04:54:21.820Z,12.30
2022-10-21T04:56:49.824Z,12.30
2022-10-21T04:59:17.828Z,12.30
2022-10-21T05:01:45.832Z,12.30
2022-10-21T05:04:13.987Z,12.40
2022-10-21T05:06:41.990Z,12.50
2022-10-21T05:09:11.403Z,12.50
2022-10-21T05:11:39.448Z,12.60
2022-10-21T05:14:07.428Z,12.60
2022-10-21T05:16:35.600Z,12.60
2022-10-21T05:19:03.605Z,12.50
2022-10-21T05:21:31.637Z,12.40
2022-10-21T05:23:59.576Z,12.30
2022-10-21T05:26:30.881Z,12.20
2022-10-21T05:28:58.930Z,12.20
2022-10-21T05:31:27.725Z,12.10
2022-10-21T05:33:55.671Z,12.00
2022-10-21T05:36:24.250Z,12.00
2022-10-21T05:38:52.828Z,12.00
2022-10-21T05:41:21.529Z,11.90
2022-10-21T05:43:50.843Z,12.00
2022-10-21T05:46:18.880Z,12.10
2022-10-21T05:51:25.381Z,12.10
2022-10-21T05:53:53.718Z,12.20
2022-10-21T05:56:22.203Z,12.20
2022-10-21T05:58:52.031Z,12.20
2022-10-21T06:01:20.067Z,12.30
2022-10-21T06:03:48.131Z,12.30
2022-10-21T06:06:16.165Z,12.30
2022-10-21T06:08:44.353Z,12.30
2022-10-21T06:11:15.432Z,12.40
2022-10-21T06:13:44.218Z,12.40
2022-10-21T06:16:15.445Z,12.50
2022-10-21T06:18:44.351Z,12.50
2022-10-21T06:21:12.453Z,12.60
2022-10-21T06:23:40.405Z,12.60
2022-10-21T06:26:12.762Z,12.60
2022-10-21T06:28:44.721Z,12.60
2022-10-21T06:31:17.193Z,12.60
2022-10-21T06:33:45.524Z,12.60
2022-10-21T06:36:13.658Z,12.50
2022-10-21T06:38:41.960Z,12.60
2022-10-21T06:41:13.743Z,12.60
2022-10-21T06:43:42.599Z,12.80
2022-10-21T06:46:15.258Z,12.70
2022-10-21T06:48:43.503Z,12.80
2022-10-21T06:51:16.876Z,12.80
2022-10-21T06:53:45.878Z,12.80
2022-10-21T06:56:17.352Z,13.00
2022-10-21T06:58:48.011Z,13.00
2022-10-21T07:01:34.405Z,13.00
2022-10-21T07:04:09.310Z,12.90
2022-10-21T07:06:38.027Z,12.90
2022-10-21T07:09:08.308Z,12.90
2022-10-21T07:11:36.984Z,12.90
2022-10-21T07:14:05.646Z,12.90
2022-10-21T07:16:38.610Z,12.90
2022-10-21T07:19:07.923Z,12.90
2022-10-21T07:21:35.892Z,12.80
2022-10-21T07:24:03.970Z,12.80
2022-10-21T07:26:34.753Z,12.80
2022-10-21T07:29:03.111Z,12.90
2022-10-21T07:31:37.846Z,12.90
2022-10-21T07:34:08.810Z,12.90
2022-10-21T07:36:40.232Z,13.00
2022-10-21T07:39:12.268Z,13.00
2022-10-21T07:41:43.591Z,13.00
2022-10-21T07:44:12.456Z,13.00
2022-10-21T07:46:44.698Z,13.10
2022-10-21T07:49:14.745Z,13.00
2022-10-21T07:51:45.087Z,13.10
2022-10-21T07:54:14.179Z,13.00
2022-10-21T07:56:45.061Z,13.10
2022-10-21T07:59:14.769Z,13.00
2022-10-21T08:01:45.777Z,13.00
2022-10-21T08:04:16.723Z,13.10
2022-10-21T08:06:45.943Z,13.00
2022-10-21T08:09:15.151Z,13.00
2022-10-21T08:11:43.690Z,13.10
2022-10-21T08:14:12.973Z,13.10
2022-10-21T08:16:43.340Z,13.10
2022-10-21T08:19:20.264Z,13.10
2022-10-21T08:21:48.693Z,13.10
2022-10-21T08:24:17.299Z,13.20
2022-10-21T08:26:45.292Z,13.30
2022-10-21T08:29:13.353Z,13.50
2022-10-21T08:31:42.706Z,13.50
2022-10-21T08:34:10.895Z,13.60
2022-10-21T08:36:40.013Z,13.50
2022-10-21T08:39:08.521Z,13.50
2022-10-21T08:42:03.438Z,13.50
2022-10-21T08:44:41.447Z,13.60
2022-10-21T08:47:22.012Z,13.60
2022-10-21T08:50:01.573Z,13.60
2022-10-21T08:52:40.259Z,13.70
2022-10-21T08:55:17.417Z,13.70
2022-10-21T08:57:45.628Z,13.70
2022-10-21T09:00:20.152Z,13.80
2022-10-21T09:03:08.653Z,13.80
2022-10-21T09:06:02.577Z,13.80
2022-10-21T09:08:42.567Z,13.90
2022-10-21T09:11:26.833Z,13.80
2022-10-21T09:14:38.097Z,13.90
2022-10-21T09:17:25.109Z,14.00
2022-10-21T09:20:10.796Z,14.10
2022-10-21T09:22:53.913Z,14.20
2022-10-21T09:25:32.429Z,14.40
2022-10-21T09:28:10.039Z,14.50
2022-10-21T09:30:39.506Z,14.60
2022-10-21T09:33:19.232Z,14.70
2022-10-21T09:35:54.673Z,14.70
2022-10-21T09:38:30.097Z,14.80
2022-10-21T09:41:03.295Z,14.90
2022-10-21T09:43:32.087Z,15.10
2022-10-21T09:46:00.337Z,15.50
2022-10-21T09:48:55.096Z,15.90
2022-10-21T09:51:33.504Z,16.50
2022-10-21T09:54:10.843Z,16.90
2022-10-21T09:56:46.260Z,16.90
2022-10-21T09:59:18.808Z,16.90
2022-10-21T10:01:49.014Z,16.70
2022-10-21T10:04:26.813Z,16.60
2022-10-21T10:06:56.385Z,16.40
2022-10-21T10:09:30.059Z,16.20
2022-10-21T10:12:02.752Z,16.10
2022-10-21T10:14:35.171Z,16.00
2022-10-21T10:17:33.618Z,16.00
2022-10-21T10:20:20.720Z,16.00
2022-10-21T10:23:17.556Z,16.10
2022-10-21T10:25:52.641Z,16.10
2022-10-21T10:28:26.581Z,16.10
2022-10-21T10:30:57.768Z,16.20
2022-10-21T10:33:31.057Z,16.30
2022-10-21T10:36:05.218Z,16.30
2022-10-21T10:38:41.748Z,16.20
2022-10-21T10:41:13.267Z,16.30
2022-10-21T10:43:48.229Z,16.20
2022-10-21T10:46:26.806Z,16.30
2022-10-21T10:48:58.769Z,16.30
2022-10-21T10:51:30.247Z,16.40
2022-10-21T10:54:16.387Z,16.50
2022-10-21T10:56:52.637Z,16.40
2022-10-21T10:59:33.432Z,16.50
2022-10-21T11:02:27.066Z,16.50
2022-10-21T11:05:17.657Z,16.60
2022-10-21T11:07:50.747Z,16.70
2022-10-21T11:10:33.932Z,17.10
2022-10-21T11:13:05.305Z,17.30
2022-10-21T11:15:56.273Z,17.50
2022-10-21T11:18:34.385Z,17.50
2022-10-21T11:21:27.647Z,17.40
2022-10-21T11:24:24.190Z,17.40
2022-10-21T11:27:00.887Z,17.20
2022-10-21T11:29:52.214Z,17.10
2022-10-21T11:32:31.804Z,17.00
2022-10-21T11:35:15.668Z,17.10
2022-10-21T11:38:02.852Z,17.20
2022-10-21T11:40:41.083Z,17.30
2022-10-21T11:43:32.948Z,17.30
2022-10-21T11:46:12.642Z,17.30
2022-10-21T11:49:17.439Z,17.40
2022-10-21T11:51:55.922Z,17.40
2022-10-21T11:55:24.374Z,17.30
2022-10-21T11:58:08.077Z,17.00
2022-10-21T12:00:49.999Z,16.80
2022-10-21T12:03:44.733Z,16.80
2022-10-21T12:06:32.052Z,16.70
2022-10-21T12:09:05.474Z,16.60
2022-10-21T12:11:42.428Z,16.60
2022-10-21T12:14:31.350Z,16.60
2022-10-21T12:17:07.996Z,16.50
2022-10-21T12:19:37.650Z,16.40
2022-10-21T12:22:06.344Z,16.30
2022-10-21T12:24:48.842Z,16.30
2022-10-21T12:27:28.295Z,16.30
2022-10-21T12:30:14.247Z,16.10
2022-10-21T12:32:56.720Z,16.00
2022-10-21T12:38:45.388Z,15.70
2022-10-21T12:41:30.654Z,15.50
2022-10-21T12:44:13.644Z,15.40
2022-10-21T12:46:44.671Z,15.40
2022-10-21T12:49:32.618Z,15.30
2022-10-21T12:52:12.449Z,15.30
2022-10-21T12:54:56.857Z,15.20
2022-10-21T12:57:29.966Z,15.20
2022-10-21T13:00:51.413Z,15.00
2022-10-21T13:03:22.990Z,14.90
2022-10-21T13:06:06.943Z,14.90
2022-10-21T13:08:54.712Z,14.80
2022-10-21T13:11:38.648Z,14.80
2022-10-21T13:14:44.459Z,14.80
2022-10-21T13:17:28.885Z,14.80
2022-10-21T13:20:18.079Z,14.80
2022-10-21T13:22:49.893Z,14.80
2022-10-21T13:25:26.332Z,14.70
2022-10-21T13:28:05.055Z,14.70
2022-10-21T13:30:36.639Z,14.70
2022-10-21T13:33:07.462Z,14.70
2022-10-21T13:35:44.371Z,14.70
2022-10-21T13:38:25.195Z,14.80
2022-10-21T13:40:57.475Z,14.70
2022-10-21T13:43:29.529Z,14.70
2022-10-21T13:46:07.893Z,14.70
2022-10-21T13:48:41.016Z,14.70
2022-10-21T13:51:18.919Z,14.70
2022-10-21T13:53:49.841Z,14.60
2022-10-21T13:56:24.091Z,14.70
2022-10-21T13:58:53.297Z,14.70
2022-10-21T14:01:25.375Z,14.70
2022-10-21T14:03:54.688Z,14.70
2022-10-21T14:06:31.276Z,14.70
2022-10-21T14:09:04.056Z,14.70
2022-10-21T14:11:37.582Z,14.80
2022-10-21T14:14:10.747Z,14.90
2022-10-21T14:16:41.985Z,15.00
2022-10-21T14:19:19.750Z,15.20
2022-10-21T14:21:53.559Z,15.40
2022-10-21T14:24:35.907Z,15.40
2022-10-21T14:27:05.078Z,15.40
2022-10-21T14:29:36.959Z,15.30
2022-10-21T14:32:06.700Z,15.30
2022-10-21T14:34:37.169Z,15.20
2022-10-21T14:37:20.105Z,15.20
2022-10-21T14:39:49.393Z,15.20
2022-10-21T14:42:21.658Z,15.10
2022-10-21T14:44:56.003Z,15.00
2022-10-21T14:47:27.611Z,15.00
2022-10-21T14:49:59.674Z,15.00
2022-10-21T14:52:36.762Z,15.00
2022-10-21T14:55:10.816Z,14.90
2022-10-21T14:57:57.381Z,14.90
2022-10-21T15:00:30.406Z,14.80
2022-10-21T15:03:00.263Z,14.80
2022-10-21T15:05:35.653Z,14.80
2022-10-21T15:08:31.986Z,14.80
2022-10-21T15:11:24.293Z,14.70
2022-10-21T15:14:06.535Z,14.80
2022-10-21T15:19:16.544Z,14.70
2022-10-21T15:21:51.546Z,14.70
2022-10-21T15:24:24.299Z,14.70
2022-10-21T15:26:55.338Z,14.60
2022-10-21T15:29:33.733Z,14.50
2022-10-21T15:32:02.634Z,14.50
2022-10-21T15:34:30.817Z,14.50
2022-10-21T15:36:58.935Z,14.40
2022-10-21T15:39:26.909Z,14.40
2022-10-21T15:41:58.451Z,14.30
2022-10-21T15:44:30.036Z,14.30
2022-10-21T15:47:02.503Z,14.30
2022-10-21T15:49:34.890Z,14.30
2022-10-21T15:52:02.884Z,14.30
2022-10-21T15:54:31.053Z,14.20
2022-10-21T15:57:02.373Z,14.20
2022-10-21T15:59:33.292Z,14.20
2022-10-21T16:02:02.227Z,14.20
2022-10-21T16:04:30.286Z,14.20
2022-10-21T16:06:58.359Z,14.20
2022-10-21T16:09:30.347Z,14.20
2022-10-21T16:12:01.588Z,14.20
2022-10-21T16:14:31.238Z,14.20
2022-10-21T16:17:00.187Z,14.10
2022-10-21T16:19:28.989Z,14.20
2022-10-21T16:21:57.790Z,14.40
2022-10-21T16:24:25.871Z,14.20
2022-10-21T16:26:53.927Z,14.10
2022-10-21T16:29:26.006Z,14.10
2022-10-21T16:31:54.227Z,14.10
2022-10-21T16:34:22.211Z,14.10
2022-10-21T16:36:50.126Z,14.10
2022-10-21T16:39:20.040Z,14.20
2022-10-21T16:41:47.953Z,14.20
2022-10-21T16:44:16.540Z,14.20
2022-10-21T16:46:52.528Z,14.20
2022-10-21T16:49:25.254Z,14.10
2022-10-21T16:51:54.661Z,14.10
2022-10-21T16:54:24.606Z,14.00
2022-10-21T16:56:55.105Z,14.00
2022-10-21T16:59:24.212Z,13.80
2022-10-21T17:01:53.504Z,13.90
2022-10-21T17:04:21.405Z,13.90
2022-10-21T17:06:49.473Z,14.00
2022-10-21T17:09:17.463Z,14.00
2022-10-21T17:11:45.393Z,13.90
2022-10-21T17:14:19.837Z,13.90
2022-10-21T17:16:48.438Z,13.90
2022-10-21T17:19:17.780Z,13.80
2022-10-21T17:21:45.763Z,13.80
2022-10-21T17:24:18.556Z,13.90
2022-10-21T17:26:47.034Z,13.90
2022-10-21T17:29:15.585Z,13.90
2022-10-21T17:31:44.771Z,13.80
2022-10-21T17:34:28.093Z,13.80
2022-10-21T17:36:56.292Z,13.70
2022-10-21T17:39:24.524Z,13.60
2022-10-21T17:41:52.720Z,13.60
2022-10-21T17:44:20.771Z,13.60
2022-10-21T17:46:51.811Z,13.50
2022-10-21T17:49:19.820Z,13.50
2022-10-21T17:51:50.127Z,13.50
2022-10-21T17:54:20.508Z,13.50
2022-10-21T17:56:51.966Z,13.50
2022-10-21T17:59:20.119Z,13.60
2022-10-21T18:01:48.135Z,13.60
2022-10-21T18:04:16.140Z,13.70
2022-10-21T18:06:44.167Z,13.80
2022-10-21T18:09:13.704Z,13.80
2022-10-21T18:11:41.766Z,13.80
2022-10-21T18:14:09.806Z,13.80
2022-10-21T18:16:37.826Z,13.80
2022-10-21T18:19:05.917Z,13.90
2022-10-21T18:21:33.931Z,13.90
2022-10-21T18:24:01.942Z,13.90
2022-10-21T18:26:32.551Z,13.80
2022-10-21T18:29:03.911Z,13.70
2022-10-21T18:31:35.693Z,13.80
2022-10-21T18:34:05.641Z,13.70
2022-10-21T18:36:34.369Z,13.60
2022-10-21T18:39:02.507Z,13.60
2022-10-21T18:41:32.109Z,13.50
2022-10-21T18:44:04.606Z,13.50
2022-10-21T18:46:33.345Z,13.50
2022-10-21T18:49:05.019Z,13.40
2022-10-21T18:51:33.174Z,13.40
2022-10-21T18:54:01.380Z,13.40
2022-10-21T18:56:30.840Z,13.50
2022-10-21T18:58:59.094Z,13.50
2022-10-21T19:01:27.591Z,13.50
2022-10-21T19:03:56.343Z,13.40
2022-10-21T19:06:39.819Z,13.30
2022-10-21T19:09:13.833Z,13.30
2022-10-21T19:11:44.301Z,13.30
2022-10-21T19:14:14.406Z,13.20
2022-10-21T19:16:43.989Z,13.20
2022-10-21T19:19:12.669Z,13.10
2022-10-21T19:21:41.118Z,13.10
2022-10-21T19:24:10.331Z,13.00
2022-10-21T19:26:42.389Z,13.00
2022-10-21T19:29:14.090Z,13.00
2022-10-21T19:31:43.698Z,13.00
2022-10-21T19:34:13.823Z,12.90
2022-10-21T19:36:42.158Z,12.90
2022-10-21T19:39:10.483Z,12.80
2022-10-21T19:41:38.855Z,12.80
2022-10-21T19:46:37.572Z,12.80
2022-10-21T20:01:35.432Z,12.70
2022-10-21T20:04:05.327Z,13.20
2022-10-21T20:06:36.467Z,13.20
2022-10-21T20:09:08.525Z,13.30
2022-10-21T20:11:37.185Z,13.30
2022-10-21T20:14:06.353Z,13.30
2022-10-21T20:16:39.252Z,13.30
2022-10-21T20:19:08.045Z,13.30
2022-10-21T20:21:37.310Z,13.30
2022-10-21T20:24:06.538Z,13.50
2022-10-21T20:26:34.807Z,13.30
2022-10-21T20:29:03.096Z,13.30
2022-10-21T20:31:32.083Z,13.30
2022-10-21T20:34:01.471Z,13.30
2022-10-21T20:36:32.419Z,13.20
2022-10-21T20:39:02.944Z,13.10
2022-10-21T20:41:34.707Z,13.10
2022-10-21T20:44:04.791Z,13.10
2022-10-21T20:46:35.306Z,13.00
2022-10-21T20:49:06.777Z,12.90
2022-10-21T20:51:36.990Z,12.90
2022-10-21T20:54:08.038Z,12.80
2022-10-21T20:56:39.596Z,12.80
2022-10-21T20:59:11.047Z,12.70
2022-10-21T21:01:42.423Z,12.60
2022-10-21T21:04:15.102Z,12.60
2022-10-21T21:06:46.427Z,12.60
2022-10-21T21:12:05.051Z,12.40
2022-10-21T21:14:33.382Z,12.40
2022-10-21T21:17:01.386Z,12.30
2022-10-21T21:19:30.780Z,12.40
2022-10-21T21:21:58.971Z,12.30
2022-10-21T21:24:27.186Z,12.30
2022-10-21T21:26:55.185Z,12.30
2022-10-21T21:29:24.000Z,12.20
2022-10-21T21:31:51.991Z,12.30
2022-10-21T21:34:20.006Z,12.30
2022-10-21T21:36:49.345Z,12.30
2022-10-21T21:39:18.049Z,12.30
2022-10-21T21:41:46.531Z,12.40
2022-10-21T21:44:14.569Z,12.40
2022-10-21T21:46:42.592Z,12.40
2022-10-21T21:49:10.598Z,12.40
2022-10-21T21:51:38.680Z,12.50
2022-10-21T21:54:08.591Z,12.40
2022-10-21T21:56:37.047Z,12.50
2022-10-21T21:59:05.444Z,12.50
2022-10-21T22:01:33.563Z,12.50
2022-10-21T22:04:02.278Z,12.50
2022-10-21T22:06:33.256Z,12.40
2022-10-21T22:09:02.673Z,12.40
2022-10-21T22:11:33.544Z,12.40
2022-10-21T22:14:01.706Z,12.30
2022-10-21T22:16:30.960Z,12.30
2022-10-21T22:19:01.524Z,12.30
2022-10-21T22:21:31.955Z,12.30
2022-10-21T22:24:00.342Z,12.30
2022-10-21T22:26:29.738Z,12.30
2022-10-21T22:28:59.068Z,12.30
2022-10-21T22:31:30.276Z,12.40
2022-10-21T22:34:00.535Z,12.40
2022-10-21T22:36:28.743Z,12.50
2022-10-21T22:38:56.776Z,12.60
2022-10-21T22:41:24.827Z,12.60
2022-10-21T22:43:52.884Z,12.70
2022-10-21T22:46:33.504Z,12.70
2022-10-21T22:49:03.062Z,12.80
2022-10-21T22:51:31.063Z,12.80
2022-10-21T22:53:59.078Z,12.80
2022-10-21T22:56:28.570Z,12.80
2022-10-21T22:58:57.756Z,12.80
2022-10-21T23:01:30.250Z,12.80
2022-10-21T23:04:02.472Z,12.80
2022-10-21T23:06:31.188Z,12.80
2022-10-21T23:08:59.852Z,12.70
2022-10-21T23:11:27.991Z,12.70
2022-10-21T23:14:02.754Z,12.70
2022-10-21T23:16:33.500Z,12.70
2022-10-21T23:19:01.544Z,12.60
2022-10-21T23:21:29.650Z,12.50
2022-10-21T23:23:57.936Z,12.50
2022-10-21T23:26:26.429Z,12.40
2022-10-21T23:28:54.528Z,12.40
2022-10-21T23:31:22.681Z,12.40
2022-10-21T23:33:52.040Z,12.40
2022-10-21T23:36:20.359Z,12.40
2022-10-21T23:38:48.421Z,12.50
2022-10-21T23:41:16.398Z,12.60
2022-10-21T23:43:44.378Z,12.70
2022-10-21T23:46:12.357Z,12.70
2022-10-21T23:48:40.404Z,12.80
2022-10-21T23:51:09.713Z,12.80
2022-10-21T23:53:38.217Z,12.80
2022-10-21T23:56:07.410Z,12.80
2022-10-21T23:58:35.415Z,12.80
